Hlavní strana
METAR-TAF:

METAR-TAF

Letiště :

Koror, Babeldaob, Palau

zeměpisná šířka: 07-22N, zeměpisná délka: 134-32E, výška: 54 m

Aktuální stav počasí

Zpráva byla vytvořena před 32 minutami, v 23:50 UTC
Východní vítr 8 kt
Teplota 29°C
Vlhkost vzduchu 74%
Tlak 1010 hPa
Viditelnost: 24.1 km
Oblačno až skoro zataženo ve výšce 1500 ft, Vertikální cumulus.
Oblačno až skoro zataženo ve výšce 12000 ft
Oblačno až skoro zataženo ve výšce 30000 ft

METAR: PTRO 172350Z 09008KT 15SM BKN015TCU BKN120 BKN300 29/24 A2982 RMK TCU ALQDS

Čas: 09:22 (00:22 UTC)

Předpověď počasí

Zpráva byla vytvořena před 57 minutami, v 23:25 UTC
Předpověď platná od 18 v 00 UTC do 18 v 24 UTC
Východoseverovýchodní vítr 10 kt
Viditelnost: 10 km
Polojasno ve výšce 1600 ft
Oblačno až skoro zataženo ve výšce 12000 ft
přeháňky v blízkosti

TAF: PTRO 172325Z 1800/1824 07010KT P6SM VCSH SCT016 BKN120

Stav a předpovědi počasí z více než 4 000 letišť (zprávy METAR a TAF).

Červené a žluté tečky na mapě představují dostupné meteorologické stanice.

Když kurzor umístíte na tečku, zobrazí se název stanice.

Pak kliknutím zobrazíte stav a předpověď počasí.

Chcete-li změnit mapu, kliknutím na zelené tlačítko se znaménkem +mapu přiblížíte, kliknutím na zelené tlačítko se znaménkem – mapu oddálíte a kliknutím na zelené šipky přejdete na sousední mapy.


METAR-TAF: